createdAt,value
2022-12-28T00:02:18.249Z,101709.63
2022-12-28T00:04:48.327Z,101695.09
2022-12-28T00:07:16.974Z,101687.16
2022-12-28T00:09:45.371Z,101669.88
2022-12-28T00:12:13.908Z,101678.19
2022-12-28T00:14:42.257Z,101680.00
2022-12-28T00:17:10.690Z,101677.63
2022-12-28T00:19:39.079Z,101683.09
2022-12-28T00:22:08.893Z,101644.41
2022-12-28T00:24:37.307Z,101664.41
2022-12-28T00:27:05.741Z,101658.25
2022-12-28T00:29:34.172Z,101666.97
2022-12-28T00:32:02.735Z,101644.09
2022-12-28T00:34:31.104Z,101633.19
2022-12-28T00:37:10.917Z,101632.16
2022-12-28T00:39:43.226Z,101623.34
2022-12-28T00:42:15.854Z,101594.28
2022-12-28T00:44:45.111Z,101623.66
2022-12-28T00:47:13.461Z,101614.94
2022-12-28T00:49:41.759Z,101602.56
2022-12-28T00:52:10.067Z,101592.88
2022-12-28T00:54:38.448Z,101603.28
2022-12-28T00:57:08.098Z,101586.50
2022-12-28T00:59:36.467Z,101533.03
2022-12-28T01:02:04.829Z,101570.03
2022-12-28T01:04:33.158Z,101573.03
2022-12-28T01:07:01.602Z,101554.56
2022-12-28T01:09:32.784Z,101555.84
2022-12-28T01:12:01.196Z,101568.69
2022-12-28T01:14:31.664Z,101566.56
2022-12-28T01:17:00.042Z,101539.38
2022-12-28T01:19:28.431Z,101528.25
2022-12-28T01:21:57.952Z,101547.09
2022-12-28T01:24:26.340Z,101549.28
2022-12-28T01:26:54.688Z,101521.94
2022-12-28T01:29:23.073Z,101527.41
2022-12-28T01:31:53.016Z,101543.88
2022-12-28T01:34:21.658Z,101534.50
2022-12-28T01:36:50.000Z,101525.66
2022-12-28T01:39:18.742Z,101515.31
2022-12-28T01:41:47.341Z,101510.13
2022-12-28T01:44:44.960Z,101527.72
2022-12-28T01:47:23.277Z,101515.59
2022-12-28T01:49:59.984Z,101517.81
2022-12-28T01:52:35.799Z,101520.72
2022-12-28T01:55:10.381Z,101488.84
2022-12-28T01:57:46.593Z,101499.53
2022-12-28T02:00:18.271Z,101489.28
2022-12-28T02:02:59.055Z,101481.78
2022-12-28T02:05:32.111Z,101502.47
2022-12-28T02:08:07.420Z,101497.19
2022-12-28T02:10:43.455Z,101476.81
2022-12-28T02:13:14.437Z,101487.06
2022-12-28T02:15:43.025Z,101472.19
2022-12-28T02:18:14.602Z,101485.78
2022-12-28T02:21:01.770Z,101490.50
2022-12-28T02:23:56.532Z,101483.50
2022-12-28T02:26:47.894Z,101472.75
2022-12-28T02:30:07.264Z,101475.09
2022-12-28T02:32:52.640Z,101478.69
2022-12-28T02:35:30.644Z,101441.28
2022-12-28T02:38:06.482Z,101420.66
2022-12-28T02:40:40.483Z,101416.31
2022-12-28T02:43:08.949Z,101414.53
2022-12-28T02:45:59.892Z,101442.28
2022-12-28T02:48:46.332Z,101435.84
2022-12-28T02:51:46.287Z,101433.16
2022-12-28T02:55:07.311Z,101432.59
2022-12-28T02:57:56.333Z,101427.41
2022-12-28T03:00:30.445Z,101442.75
2022-12-28T03:03:19.159Z,101421.75
2022-12-28T03:06:19.126Z,101400.09
2022-12-28T03:08:55.407Z,101425.03
2022-12-28T03:11:32.577Z,101430.56
2022-12-28T03:14:08.196Z,101417.78
2022-12-28T03:16:53.678Z,101392.72
2022-12-28T03:19:51.070Z,101411.34
2022-12-28T03:22:38.605Z,101385.16
2022-12-28T03:25:32.333Z,101379.06
2022-12-28T03:28:23.662Z,101382.63
2022-12-28T03:31:07.823Z,101408.94
2022-12-28T03:33:49.271Z,101366.56
2022-12-28T03:36:28.025Z,101398.56
2022-12-28T03:39:05.482Z,101379.81
2022-12-28T03:41:40.513Z,101377.44
2022-12-28T03:44:35.551Z,101393.59
2022-12-28T03:47:10.835Z,101392.84
2022-12-28T03:49:40.691Z,101383.13
2022-12-28T03:52:12.267Z,101344.28
2022-12-28T03:54:41.780Z,101411.66
2022-12-28T03:57:13.696Z,101407.00
2022-12-28T03:59:45.052Z,101376.34
2022-12-28T04:02:14.059Z,101394.38
2022-12-28T04:04:43.146Z,101396.72
2022-12-28T04:07:13.115Z,101377.97
2022-12-28T04:09:41.633Z,101387.81
2022-12-28T04:12:14.607Z,101375.59
2022-12-28T04:15:07.325Z,101378.34
2022-12-28T04:17:36.281Z,101374.09
2022-12-28T04:20:06.039Z,101370.47
2022-12-28T04:22:36.480Z,101369.78
2022-12-28T04:25:06.136Z,101350.25
2022-12-28T04:27:36.228Z,101345.78
2022-12-28T04:30:12.800Z,101356.72
2022-12-28T04:32:41.144Z,101348.31
2022-12-28T04:35:10.349Z,101341.44
2022-12-28T04:37:48.113Z,101349.31
2022-12-28T04:40:16.903Z,101349.41
2022-12-28T04:42:45.283Z,101360.13
2022-12-28T04:45:16.979Z,101359.31
2022-12-28T04:47:49.985Z,101350.69
2022-12-28T04:50:18.519Z,101352.91
2022-12-28T04:52:48.238Z,101356.75
2022-12-28T04:55:33.123Z,101353.50
2022-12-28T04:58:02.100Z,101359.53
2022-12-28T05:00:30.503Z,101342.22
2022-12-28T05:03:00.707Z,101341.66
2022-12-28T05:05:29.976Z,101344.38
2022-12-28T05:08:02.495Z,101339.00
2022-12-28T05:10:31.379Z,101336.59
2022-12-28T05:12:59.768Z,101316.41
2022-12-28T05:15:28.071Z,101330.31
2022-12-28T05:17:57.116Z,101296.34
2022-12-28T05:20:25.414Z,101289.22
2022-12-28T05:22:53.683Z,101321.97
2022-12-28T05:25:23.604Z,101312.22
2022-12-28T05:27:52.004Z,101282.13
2022-12-28T05:30:20.321Z,101300.19
2022-12-28T05:32:48.659Z,101307.38
2022-12-28T05:35:17.131Z,101315.13
2022-12-28T05:37:45.438Z,101305.28
2022-12-28T05:40:13.982Z,101302.94
2022-12-28T05:42:49.658Z,101310.69
2022-12-28T05:45:20.230Z,101294.09
2022-12-28T05:47:48.582Z,101287.06
2022-12-28T05:50:17.291Z,101300.56
2022-12-28T05:52:45.772Z,101299.88
2022-12-28T05:55:14.073Z,101296.22
2022-12-28T05:57:43.784Z,101266.41
2022-12-28T06:00:13.494Z,101299.09
2022-12-28T06:02:41.990Z,101291.25
2022-12-28T06:05:10.910Z,101281.88
2022-12-28T06:07:39.238Z,101284.44
2022-12-28T06:10:09.291Z,101272.72
2022-12-28T06:12:37.714Z,101290.28
2022-12-28T06:15:09.270Z,101286.94
2022-12-28T06:17:38.128Z,101282.97
2022-12-28T06:20:08.336Z,101272.19
2022-12-28T06:22:36.732Z,101280.78
2022-12-28T06:25:05.614Z,101272.56
2022-12-28T06:27:33.873Z,101278.88
2022-12-28T06:30:02.219Z,101277.25
2022-12-28T06:32:31.947Z,101263.03
2022-12-28T06:35:00.237Z,101277.72
2022-12-28T06:37:28.534Z,101267.31
2022-12-28T06:39:56.839Z,101271.09
2022-12-28T06:42:25.245Z,101263.25
2022-12-28T06:44:53.715Z,101263.81
2022-12-28T06:47:22.141Z,101246.97
2022-12-28T06:49:51.865Z,101249.03
2022-12-28T06:52:20.246Z,101256.69
2022-12-28T06:54:48.544Z,101254.06
2022-12-28T06:57:16.940Z,101249.50
2022-12-28T06:59:45.213Z,101266.06
2022-12-28T07:02:13.654Z,101245.13
2022-12-28T07:04:42.056Z,101263.00
2022-12-28T07:07:11.866Z,101251.09
2022-12-28T07:09:40.205Z,101218.66
2022-12-28T07:12:08.811Z,101222.34
2022-12-28T07:14:37.215Z,101249.59
2022-12-28T07:17:05.507Z,101240.72
2022-12-28T07:19:33.887Z,101244.28
2022-12-28T07:22:03.255Z,101234.22
2022-12-28T07:24:32.956Z,101230.00
2022-12-28T07:27:01.312Z,101235.25
2022-12-28T07:29:29.695Z,101243.69
2022-12-28T07:31:58.015Z,101249.63
2022-12-28T07:34:26.315Z,101240.13
2022-12-28T07:36:54.730Z,101240.13
2022-12-28T07:39:23.109Z,101235.78
2022-12-28T07:41:52.840Z,101234.84
2022-12-28T07:44:25.567Z,101234.97
2022-12-28T07:46:57.609Z,101233.38
2022-12-28T07:49:25.988Z,101236.34
2022-12-28T07:51:54.319Z,101240.97
2022-12-28T07:54:22.657Z,101237.47
2022-12-28T07:56:52.364Z,101238.34
2022-12-28T07:59:22.721Z,101246.81
2022-12-28T08:01:53.305Z,101246.97
2022-12-28T08:04:21.782Z,101232.38
2022-12-28T08:06:50.085Z,101209.28
2022-12-28T08:09:18.369Z,101233.41
2022-12-28T08:11:49.778Z,101235.03
2022-12-28T08:14:19.566Z,101227.03
2022-12-28T08:16:47.868Z,101236.53
2022-12-28T08:19:16.540Z,101232.28
2022-12-28T08:21:46.483Z,101235.75
2022-12-28T08:24:17.591Z,101238.41
2022-12-28T08:26:47.458Z,101231.25
2022-12-28T08:29:20.350Z,101219.72
2022-12-28T08:31:49.792Z,101240.53
2022-12-28T08:34:23.136Z,101205.38
2022-12-28T08:36:51.459Z,101210.78
2022-12-28T08:39:19.851Z,101203.06
2022-12-28T08:41:48.380Z,101243.44
2022-12-28T08:44:16.711Z,101243.66
2022-12-28T08:46:46.525Z,101224.56
2022-12-28T08:49:15.210Z,101233.34
2022-12-28T08:51:44.029Z,101238.63
2022-12-28T08:54:14.892Z,101226.75
2022-12-28T08:56:45.979Z,101223.38
2022-12-28T08:59:17.329Z,101225.06
2022-12-28T09:01:48.529Z,101198.63
2022-12-28T09:04:20.356Z,101224.19
2022-12-28T09:06:49.718Z,101217.06
2022-12-28T09:09:21.008Z,101197.97
2022-12-28T09:11:50.096Z,101220.66
2022-12-28T09:14:23.748Z,101226.94
2022-12-28T09:16:54.904Z,101221.94
2022-12-28T09:19:24.046Z,101194.53
2022-12-28T09:21:55.244Z,101212.91
2022-12-28T09:24:24.464Z,101215.53
2022-12-28T09:26:54.626Z,101221.94
2022-12-28T09:29:23.066Z,101209.50
2022-12-28T09:31:51.541Z,101214.16
2022-12-28T09:34:37.787Z,101209.75
2022-12-28T09:37:07.730Z,101189.59
2022-12-28T09:39:36.151Z,101207.56
2022-12-28T09:42:12.496Z,101196.44
2022-12-28T09:45:04.196Z,101206.16
2022-12-28T09:47:39.906Z,101193.22
2022-12-28T09:50:29.941Z,101215.09
2022-12-28T09:53:26.763Z,101196.69
2022-12-28T09:56:04.454Z,101207.44
2022-12-28T09:58:37.981Z,101210.88
2022-12-28T10:01:13.511Z,101199.78
2022-12-28T10:03:45.232Z,101209.94
2022-12-28T10:06:17.933Z,101213.13
2022-12-28T10:08:50.035Z,101182.44
2022-12-28T10:11:23.711Z,101183.25
2022-12-28T10:13:59.521Z,101205.28
2022-12-28T10:16:32.604Z,101215.75
2022-12-28T10:19:01.628Z,101187.50
2022-12-28T10:21:34.521Z,101223.44
2022-12-28T10:26:58.186Z,101204.72
2022-12-28T10:29:28.336Z,101220.63
2022-12-28T10:32:02.709Z,101224.88
2022-12-28T10:34:34.288Z,101208.75
2022-12-28T10:37:15.380Z,101215.94
2022-12-28T10:39:52.730Z,101214.63
2022-12-28T10:42:27.292Z,101207.97
2022-12-28T10:45:03.498Z,101190.41
2022-12-28T10:47:36.195Z,101193.22
2022-12-28T10:53:00.172Z,101207.13
2022-12-28T10:55:32.113Z,101213.16
2022-12-28T10:58:30.263Z,101196.63
2022-12-28T11:01:02.860Z,101206.22
2022-12-28T11:03:35.550Z,101168.06
2022-12-28T11:06:19.874Z,101204.09
2022-12-28T11:09:07.593Z,101194.56
2022-12-28T11:11:36.184Z,101175.94
2022-12-28T11:14:13.655Z,101183.25
2022-12-28T11:16:43.381Z,101190.19
2022-12-28T11:19:13.066Z,101168.28
2022-12-28T11:21:44.169Z,101177.41
2022-12-28T11:24:17.283Z,101090.50
2022-12-28T11:26:49.104Z,101155.75
2022-12-28T11:29:20.446Z,101171.63
2022-12-28T11:31:54.432Z,101115.25
2022-12-28T11:34:28.032Z,101157.97
2022-12-28T11:36:57.115Z,101163.00
2022-12-28T11:39:46.370Z,101156.06
2022-12-28T11:42:55.171Z,101157.84
2022-12-28T11:45:54.308Z,101139.63
2022-12-28T11:48:47.681Z,101136.91
2022-12-28T11:51:18.570Z,101144.38
2022-12-28T11:53:58.516Z,101121.78
2022-12-28T11:56:50.316Z,101113.34
2022-12-28T11:59:25.870Z,101136.22
2022-12-28T12:01:59.479Z,101129.56
2022-12-28T12:04:35.015Z,101098.56
2022-12-28T12:07:46.607Z,101119.94
2022-12-28T12:10:35.334Z,101084.72
2022-12-28T12:13:38.994Z,101105.66
2022-12-28T12:16:21.727Z,101084.09
2022-12-28T12:18:54.668Z,101086.75
2022-12-28T12:21:32.728Z,101042.88
2022-12-28T12:24:14.481Z,101065.94
2022-12-28T12:26:51.188Z,101079.03
2022-12-28T12:29:24.924Z,101065.81
2022-12-28T12:32:02.231Z,101059.69
2022-12-28T12:34:42.950Z,101045.72
2022-12-28T12:37:30.542Z,101056.41
2022-12-28T12:40:50.318Z,101047.84
2022-12-28T12:43:31.630Z,101046.06
2022-12-28T12:46:20.409Z,101040.16
2022-12-28T12:49:15.282Z,101033.97
2022-12-28T12:51:53.838Z,100998.84
2022-12-28T12:54:37.788Z,101019.06
2022-12-28T12:57:16.935Z,101016.56
2022-12-28T13:00:03.664Z,101014.75
2022-12-28T13:03:30.526Z,101009.69
2022-12-28T13:06:00.878Z,100996.22
2022-12-28T13:08:41.934Z,100986.78
2022-12-28T13:11:11.759Z,100949.09
2022-12-28T13:13:42.812Z,100935.41
2022-12-28T13:16:17.359Z,100963.41
2022-12-28T13:18:55.934Z,100930.91
2022-12-28T13:21:27.950Z,100951.19
2022-12-28T13:23:56.453Z,100941.78
2022-12-28T13:26:29.926Z,100928.69
2022-12-28T13:29:01.765Z,100897.13
2022-12-28T13:31:35.344Z,100917.38
2022-12-28T13:34:06.662Z,100909.72
2022-12-28T13:36:36.569Z,100902.66
2022-12-28T13:39:12.829Z,100888.03
2022-12-28T13:41:50.266Z,100876.63
2022-12-28T13:44:45.508Z,100862.50
2022-12-28T13:47:23.400Z,100848.66
2022-12-28T13:49:58.990Z,100870.59
2022-12-28T13:52:34.029Z,100847.06
2022-12-28T13:55:08.546Z,100857.00
2022-12-28T13:57:50.135Z,100827.25
2022-12-28T14:00:20.850Z,100821.91
2022-12-28T14:02:53.344Z,100812.59
2022-12-28T14:05:27.016Z,100801.06
2022-12-28T14:07:59.470Z,100808.00
2022-12-28T14:10:28.574Z,100815.88
2022-12-28T14:12:57.816Z,100809.91
2022-12-28T14:15:26.881Z,100806.34
2022-12-28T14:17:55.759Z,100798.25
2022-12-28T14:20:24.295Z,100766.75
2022-12-28T14:22:52.835Z,100791.56
2022-12-28T14:25:24.137Z,100780.25
2022-12-28T14:27:58.691Z,100775.66
2022-12-28T14:30:31.496Z,100762.44
2022-12-28T14:33:22.384Z,100766.03
2022-12-28T14:35:56.220Z,100754.66
2022-12-28T14:38:30.057Z,100757.31
2022-12-28T14:41:03.348Z,100740.41
2022-12-28T14:43:36.636Z,100752.66
2022-12-28T14:46:18.185Z,100743.13
2022-12-28T14:48:46.803Z,100746.69
2022-12-28T14:51:31.564Z,100746.50
2022-12-28T14:54:19.312Z,100745.59
2022-12-28T14:56:54.732Z,100719.47
2022-12-28T14:59:28.431Z,100723.81
2022-12-28T15:01:57.102Z,100715.13
2022-12-28T15:04:37.734Z,100692.28
2022-12-28T15:07:08.287Z,100718.56
2022-12-28T15:09:37.042Z,100697.53
2022-12-28T15:12:14.924Z,100676.50
2022-12-28T15:14:44.056Z,100689.78
2022-12-28T15:17:12.504Z,100684.53
2022-12-28T15:19:42.554Z,100687.94
2022-12-28T15:22:10.944Z,100672.84
2022-12-28T15:24:41.596Z,100682.44
2022-12-28T15:27:11.448Z,100695.50
2022-12-28T15:30:04.382Z,100687.63
2022-12-28T15:32:29.435Z,100691.97
2022-12-28T15:34:57.848Z,100688.38
2022-12-28T15:37:26.198Z,100688.38
2022-12-28T15:39:54.685Z,100681.50
2022-12-28T15:42:24.426Z,100688.47
2022-12-28T15:44:54.034Z,100668.41
2022-12-28T15:47:23.301Z,100662.31
2022-12-28T15:49:51.674Z,100652.75
2022-12-28T15:52:20.041Z,100652.63
2022-12-28T15:54:48.373Z,100645.53
2022-12-28T15:57:16.977Z,100631.63
2022-12-28T15:59:47.457Z,100628.91
2022-12-28T16:02:16.676Z,100606.22
2022-12-28T16:04:45.212Z,100589.50
2022-12-28T16:07:13.724Z,100615.81
2022-12-28T16:09:42.104Z,100602.69
2022-12-28T16:12:10.535Z,100600.13
2022-12-28T16:14:39.114Z,100600.03
2022-12-28T16:17:08.910Z,100598.25
2022-12-28T16:19:37.300Z,100593.19
2022-12-28T16:22:05.692Z,100592.19
2022-12-28T16:24:34.318Z,100585.16
2022-12-28T16:27:02.848Z,100566.75
2022-12-28T16:29:31.368Z,100576.50
2022-12-28T16:32:01.494Z,100553.69
2022-12-28T16:34:31.781Z,100568.69
2022-12-28T16:37:00.496Z,100572.22
2022-12-28T16:39:30.851Z,100513.44
2022-12-28T16:41:59.683Z,100559.88
2022-12-28T16:44:29.390Z,100561.44
2022-12-28T16:46:59.725Z,100535.28
2022-12-28T16:49:30.705Z,100549.47
2022-12-28T16:51:59.348Z,100546.00
2022-12-28T16:54:29.169Z,100542.38
2022-12-28T16:56:57.704Z,100536.22
2022-12-28T16:59:28.874Z,100543.34
2022-12-28T17:01:59.195Z,100533.63
2022-12-28T17:04:28.117Z,100510.09
2022-12-28T17:06:57.895Z,100518.06
2022-12-28T17:09:26.369Z,100498.63
2022-12-28T17:11:54.692Z,100522.34
2022-12-28T17:14:37.347Z,100516.34
2022-12-28T17:17:07.136Z,100514.63
2022-12-28T17:19:36.210Z,100475.03
2022-12-28T17:22:06.625Z,100504.81
2022-12-28T17:24:34.971Z,100491.13
2022-12-28T17:27:07.744Z,100487.56
2022-12-28T17:29:37.476Z,100485.69
2022-12-28T17:32:07.367Z,100480.50
2022-12-28T17:34:36.067Z,100479.47
2022-12-28T17:37:06.020Z,100471.72
2022-12-28T17:39:40.302Z,100482.28
2022-12-28T17:42:10.258Z,100460.34
2022-12-28T17:44:38.755Z,100462.31
2022-12-28T17:47:07.261Z,100473.47
2022-12-28T17:49:35.703Z,100461.28
2022-12-28T17:52:05.693Z,100438.44
2022-12-28T17:54:34.865Z,100453.41
2022-12-28T17:57:03.244Z,100455.13
2022-12-28T17:59:31.933Z,100455.03
2022-12-28T18:02:01.978Z,100458.59
2022-12-28T18:04:30.880Z,100457.84
2022-12-28T18:06:59.210Z,100451.81
2022-12-28T18:09:29.069Z,100442.25
2022-12-28T18:11:57.683Z,100415.88
2022-12-28T18:14:26.291Z,100405.41
2022-12-28T18:16:55.466Z,100437.91
2022-12-28T18:19:23.921Z,100431.75
2022-12-28T18:21:52.454Z,100424.75
2022-12-28T18:24:22.385Z,100405.50
2022-12-28T18:26:52.192Z,100411.63
2022-12-28T18:29:20.652Z,100411.56
2022-12-28T18:31:49.026Z,100414.28
2022-12-28T18:34:17.443Z,100418.88
2022-12-28T18:36:45.861Z,100410.94
2022-12-28T18:39:14.563Z,100413.53
2022-12-28T18:41:42.974Z,100417.88
2022-12-28T18:44:12.694Z,100418.78
2022-12-28T18:46:41.522Z,100404.00
2022-12-28T18:49:09.903Z,100393.63
2022-12-28T18:51:39.793Z,100411.00
2022-12-28T18:54:08.156Z,100394.59
2022-12-28T18:56:36.499Z,100394.59
2022-12-28T18:59:04.919Z,100371.75
2022-12-28T19:04:25.399Z,100405.06
2022-12-28T19:06:53.941Z,100395.50
2022-12-28T19:09:23.357Z,100386.78
2022-12-28T19:11:52.771Z,100390.38
2022-12-28T19:14:21.199Z,100393.88
2022-12-28T19:16:50.917Z,100400.13
2022-12-28T19:19:20.453Z,100387.97
2022-12-28T19:21:52.290Z,100377.38
2022-12-28T19:24:23.616Z,100398.34
2022-12-28T19:26:53.755Z,100390.41
2022-12-28T19:29:22.154Z,100376.41
2022-12-28T19:31:51.934Z,100378.25
2022-12-28T19:34:20.369Z,100373.94
2022-12-28T19:36:48.819Z,100373.16
2022-12-28T19:39:17.298Z,100354.72
2022-12-28T19:41:45.630Z,100377.50
2022-12-28T19:44:14.574Z,100377.56
2022-12-28T19:46:43.146Z,100375.00
2022-12-28T19:49:12.871Z,100376.75
2022-12-28T19:51:42.851Z,100366.28
2022-12-28T19:54:12.507Z,100363.66
2022-12-28T19:56:41.114Z,100368.06
2022-12-28T19:59:09.689Z,100366.28
2022-12-28T20:01:39.283Z,100359.28
2022-12-28T20:04:13.477Z,100344.47
2022-12-28T20:06:45.325Z,100324.50
2022-12-28T20:09:15.518Z,100346.38
2022-12-28T20:11:45.643Z,100328.81
2022-12-28T20:14:20.383Z,100351.66
2022-12-28T20:16:52.870Z,100336.69
2022-12-28T20:19:21.261Z,100339.41
2022-12-28T20:21:51.211Z,100356.94
2022-12-28T20:24:21.765Z,100366.59
2022-12-28T20:26:50.201Z,100356.09
2022-12-28T20:29:18.568Z,100352.59
2022-12-28T20:31:46.981Z,100352.69
2022-12-28T20:34:15.352Z,100347.38
2022-12-28T20:36:43.778Z,100345.72
2022-12-28T20:39:13.613Z,100358.75
2022-12-28T20:41:59.291Z,100349.13
2022-12-28T20:44:31.349Z,100345.69
2022-12-28T20:47:00.769Z,100342.22
2022-12-28T20:49:31.459Z,100342.25
2022-12-28T20:51:59.814Z,100304.69
2022-12-28T20:54:29.724Z,100336.22
2022-12-28T20:56:58.106Z,100330.97
2022-12-28T20:59:26.980Z,100288.09
2022-12-28T21:01:55.794Z,100326.59
2022-12-28T21:04:25.753Z,100301.16
2022-12-28T21:06:55.151Z,100296.75
2022-12-28T21:09:24.085Z,100275.84
2022-12-28T21:11:53.764Z,100315.31
2022-12-28T21:14:24.216Z,100298.63
2022-12-28T21:16:52.895Z,100280.25
2022-12-28T21:19:23.678Z,100305.66
2022-12-28T21:21:52.022Z,100263.63
2022-12-28T21:24:20.365Z,100296.03
2022-12-28T21:26:48.744Z,100310.91
2022-12-28T21:29:25.436Z,100268.84
2022-12-28T21:31:54.782Z,100305.69
2022-12-28T21:34:23.606Z,100292.59
2022-12-28T21:36:51.946Z,100278.63
2022-12-28T21:39:20.977Z,100274.19
2022-12-28T21:41:50.498Z,100282.19
2022-12-28T21:44:24.418Z,100277.78
2022-12-28T21:46:54.418Z,100280.41
2022-12-28T21:49:23.200Z,100274.28
2022-12-28T21:51:54.855Z,100273.41
2022-12-28T21:54:24.020Z,100262.03
2022-12-28T21:56:55.590Z,100261.25
2022-12-28T21:59:27.646Z,100258.63
2022-12-28T22:02:14.046Z,100247.25
2022-12-28T22:05:03.621Z,100259.50
2022-12-28T22:07:32.918Z,100252.53
2022-12-28T22:10:20.037Z,100230.66
2022-12-28T22:12:48.415Z,100260.38
2022-12-28T22:15:39.976Z,100255.13
2022-12-28T22:18:37.096Z,100217.53
2022-12-28T22:21:08.839Z,100251.66
2022-12-28T22:23:38.142Z,100195.75
2022-12-28T22:26:10.491Z,100248.19
2022-12-28T22:28:40.688Z,100244.72
2022-12-28T22:31:10.920Z,100230.72
2022-12-28T22:33:39.455Z,100157.31
2022-12-28T22:36:13.927Z,100238.59
2022-12-28T22:38:42.593Z,100245.56
2022-12-28T22:41:13.960Z,100240.34
2022-12-28T22:43:43.700Z,100242.03
2022-12-28T22:46:13.637Z,100228.94
2022-12-28T22:48:41.977Z,100222.84
2022-12-28T22:51:13.554Z,100231.59
2022-12-28T22:53:43.875Z,100220.25
2022-12-28T22:56:23.148Z,100192.28
2022-12-28T22:58:51.567Z,100214.16
2022-12-28T23:01:22.097Z,100217.63
2022-12-28T23:03:51.658Z,100203.63
2022-12-28T23:06:21.625Z,100160.84
2022-12-28T23:08:50.002Z,100207.16
2022-12-28T23:11:39.348Z,100217.66
2022-12-28T23:14:29.954Z,100199.28
2022-12-28T23:17:00.761Z,100203.66
2022-12-28T23:19:47.907Z,100173.06
2022-12-28T23:22:36.676Z,100183.59
2022-12-28T23:25:24.356Z,100161.75
2022-12-28T23:27:54.611Z,100173.97
2022-12-28T23:30:24.566Z,100183.56
2022-12-28T23:33:00.938Z,100162.59
2022-12-28T23:35:32.951Z,100185.31
2022-12-28T23:38:01.362Z,100180.09
2022-12-28T23:40:29.989Z,100170.47
2022-12-28T23:42:58.836Z,100158.22
2022-12-28T23:45:27.486Z,100153.84
2022-12-28T23:47:57.204Z,100119.81
2022-12-28T23:50:27.837Z,100140.78
2022-12-28T23:52:58.861Z,100051.75
2022-12-28T23:55:30.150Z,100108.44
2022-12-28T23:58:15.637Z,100098.84
